createdAt,value
2017-12-31T00:01:13.804Z,94.97
2017-12-31T00:03:42.083Z,95.42
2017-12-31T00:06:10.381Z,95.54
2017-12-31T00:08:38.666Z,95.58
2017-12-31T00:11:06.940Z,95.50
2017-12-31T00:13:35.211Z,95.83
2017-12-31T00:16:03.495Z,95.83
2017-12-31T00:18:31.793Z,95.91
2017-12-31T00:21:00.058Z,96.28
2017-12-31T00:23:28.345Z,96.26
2017-12-31T00:25:56.594Z,96.56
2017-12-31T00:28:24.898Z,96.60
2017-12-31T00:30:53.172Z,96.71
2017-12-31T00:33:21.468Z,96.08
2017-12-31T00:35:49.732Z,95.62
2017-12-31T00:38:18.361Z,95.12
2017-12-31T00:40:46.646Z,94.77
2017-12-31T00:43:14.919Z,94.52
2017-12-31T00:45:43.200Z,94.38
2017-12-31T00:48:11.473Z,94.02
2017-12-31T00:50:39.747Z,93.82
2017-12-31T00:53:08.033Z,94.04
2017-12-31T00:55:36.332Z,93.91
2017-12-31T00:58:04.720Z,94.07
2017-12-31T01:00:33.761Z,93.94
2017-12-31T01:03:02.815Z,93.92
2017-12-31T01:05:31.077Z,94.12
2017-12-31T01:07:59.375Z,94.22
2017-12-31T01:10:27.672Z,94.45
2017-12-31T01:12:55.925Z,94.24
2017-12-31T01:15:24.202Z,94.39
2017-12-31T01:17:52.480Z,94.27
2017-12-31T01:20:20.775Z,94.22
2017-12-31T01:22:49.076Z,94.18
2017-12-31T01:25:18.476Z,94.40
2017-12-31T01:27:46.762Z,94.23
2017-12-31T01:30:15.798Z,94.19
2017-12-31T01:32:44.073Z,94.29
2017-12-31T01:35:12.368Z,94.35
2017-12-31T01:37:40.663Z,93.87
2017-12-31T01:40:08.965Z,94.16
2017-12-31T01:42:37.260Z,94.34
2017-12-31T01:45:06.601Z,94.45
2017-12-31T01:47:34.877Z,94.43
2017-12-31T01:50:03.148Z,94.15
2017-12-31T01:52:31.435Z,94.23
2017-12-31T01:54:59.710Z,94.52
2017-12-31T01:57:28.927Z,94.46
2017-12-31T01:59:57.249Z,94.70
2017-12-31T02:02:26.281Z,94.41
2017-12-31T02:04:54.562Z,94.37
2017-12-31T02:07:22.828Z,94.17
2017-12-31T02:09:51.103Z,94.22
2017-12-31T02:12:19.392Z,93.76
2017-12-31T02:14:47.686Z,93.77
2017-12-31T02:17:16.040Z,94.08
2017-12-31T02:19:44.306Z,93.93
2017-12-31T02:22:13.403Z,93.60
2017-12-31T02:24:42.423Z,93.71
2017-12-31T02:27:10.701Z,93.73
2017-12-31T02:29:38.964Z,93.51
2017-12-31T02:32:07.289Z,93.62
2017-12-31T02:34:35.534Z,93.40
2017-12-31T02:37:03.804Z,93.50
2017-12-31T02:39:32.097Z,93.73
2017-12-31T02:42:00.357Z,93.45
2017-12-31T02:44:28.633Z,92.86
2017-12-31T02:46:56.912Z,93.02
2017-12-31T02:49:25.180Z,93.10
2017-12-31T02:51:53.472Z,93.04
2017-12-31T02:54:21.726Z,92.51
2017-12-31T02:56:50.031Z,92.92
2017-12-31T02:59:18.300Z,92.62
2017-12-31T03:01:46.579Z,92.77
2017-12-31T03:04:14.864Z,93.13
2017-12-31T03:06:43.840Z,93.34
2017-12-31T03:09:12.148Z,92.33
2017-12-31T03:11:40.398Z,92.65
2017-12-31T03:14:08.687Z,91.90
2017-12-31T03:16:36.966Z,91.93
2017-12-31T03:19:05.829Z,91.71
2017-12-31T03:21:34.102Z,91.64
2017-12-31T03:24:03.147Z,91.61
2017-12-31T03:26:31.418Z,91.57
2017-12-31T03:28:59.698Z,91.87
2017-12-31T03:31:27.976Z,91.75
2017-12-31T03:33:56.240Z,91.11
2017-12-31T03:36:24.548Z,90.88
2017-12-31T03:38:52.854Z,90.65
2017-12-31T03:41:21.917Z,90.80
2017-12-31T03:43:50.201Z,91.15
2017-12-31T03:46:18.470Z,91.04
2017-12-31T03:48:47.491Z,91.21
2017-12-31T03:51:15.788Z,90.70
2017-12-31T03:53:44.818Z,90.29
2017-12-31T03:56:13.097Z,90.79
2017-12-31T03:58:41.377Z,90.72
2017-12-31T04:01:09.639Z,90.11
2017-12-31T04:03:37.985Z,89.98
2017-12-31T04:06:07.859Z,89.25
2017-12-31T04:08:36.152Z,89.53
2017-12-31T04:11:04.420Z,89.64
2017-12-31T04:13:32.685Z,89.14
2017-12-31T04:16:00.971Z,89.47
2017-12-31T04:18:29.274Z,89.08
2017-12-31T04:20:57.551Z,88.60
2017-12-31T04:23:25.817Z,88.57
2017-12-31T04:25:54.114Z,88.57
2017-12-31T04:28:22.383Z,88.25
2017-12-31T04:30:50.642Z,88.17
2017-12-31T04:33:19.718Z,88.60
2017-12-31T04:35:47.982Z,88.36
2017-12-31T04:38:16.263Z,88.18
2017-12-31T04:40:44.537Z,88.10
2017-12-31T04:43:12.798Z,87.99
2017-12-31T04:45:41.089Z,88.36
2017-12-31T04:48:09.370Z,88.43
2017-12-31T04:50:37.638Z,88.81
2017-12-31T04:53:05.933Z,88.38
2017-12-31T04:55:34.186Z,88.12
2017-12-31T04:58:02.481Z,87.82
2017-12-31T05:00:30.755Z,87.67
2017-12-31T05:02:59.023Z,88.07
2017-12-31T05:05:28.059Z,88.86
2017-12-31T05:07:56.331Z,88.42
2017-12-31T05:10:24.615Z,88.01
2017-12-31T05:12:52.883Z,88.47
2017-12-31T05:15:21.171Z,88.54
2017-12-31T05:17:49.431Z,87.06
2017-12-31T05:20:17.705Z,87.48
2017-12-31T05:22:45.997Z,87.74
2017-12-31T05:25:14.272Z,87.62
2017-12-31T05:27:42.573Z,87.94
2017-12-31T05:30:11.747Z,87.54
2017-12-31T05:32:40.036Z,88.23
2017-12-31T05:35:08.304Z,87.35
2017-12-31T05:37:36.563Z,86.50
2017-12-31T05:40:04.853Z,86.36
2017-12-31T05:42:33.105Z,87.37
2017-12-31T05:45:01.407Z,87.62
2017-12-31T05:47:29.676Z,87.44
2017-12-31T05:49:58.240Z,86.75
2017-12-31T05:52:26.529Z,86.94
2017-12-31T05:54:54.796Z,87.08
2017-12-31T05:57:23.853Z,87.49
2017-12-31T05:59:52.126Z,87.20
2017-12-31T06:02:20.397Z,85.93
2017-12-31T06:04:48.658Z,86.45
2017-12-31T06:07:16.942Z,86.75
2017-12-31T06:09:45.237Z,85.81
2017-12-31T06:12:13.520Z,86.34
2017-12-31T06:14:41.881Z,86.14
2017-12-31T06:17:10.146Z,86.21
2017-12-31T06:19:38.440Z,85.92
2017-12-31T06:22:06.713Z,85.62
2017-12-31T06:24:35.001Z,85.18
2017-12-31T06:27:03.335Z,85.62
2017-12-31T06:29:31.633Z,85.87
2017-12-31T06:31:59.943Z,85.93
2017-12-31T06:34:28.208Z,85.62
2017-12-31T06:36:56.491Z,86.59
2017-12-31T06:39:24.773Z,85.80
2017-12-31T06:41:53.042Z,85.77
2017-12-31T06:44:21.398Z,85.19
2017-12-31T06:46:49.678Z,85.42
2017-12-31T06:49:18.012Z,85.19
2017-12-31T06:51:46.316Z,85.05
2017-12-31T06:54:15.622Z,84.74
2017-12-31T06:56:43.904Z,84.89
2017-12-31T06:59:12.166Z,85.35
2017-12-31T07:01:40.451Z,85.16
2017-12-31T07:04:08.713Z,84.81
2017-12-31T07:06:38.023Z,85.43
2017-12-31T07:09:06.343Z,84.98
2017-12-31T07:11:34.557Z,85.05
2017-12-31T07:14:03.607Z,85.26
2017-12-31T07:16:31.892Z,85.15
2017-12-31T07:19:00.182Z,84.92
2017-12-31T07:21:30.217Z,85.04
2017-12-31T07:23:59.312Z,84.86
2017-12-31T07:26:29.902Z,84.97
2017-12-31T07:28:59.447Z,84.87
2017-12-31T07:31:27.733Z,84.74
2017-12-31T07:33:56.767Z,84.81
2017-12-31T07:36:25.062Z,84.62
2017-12-31T07:38:53.325Z,84.21
2017-12-31T07:41:21.678Z,84.80
2017-12-31T07:43:50.717Z,85.17
2017-12-31T07:46:18.990Z,85.15
2017-12-31T07:48:47.247Z,85.12
2017-12-31T07:51:15.519Z,85.26
2017-12-31T07:53:44.581Z,85.20
2017-12-31T07:56:12.847Z,84.95
2017-12-31T07:58:41.143Z,85.33
2017-12-31T08:01:09.394Z,85.35
2017-12-31T08:03:37.659Z,85.59
2017-12-31T08:06:05.949Z,85.46
2017-12-31T08:08:34.207Z,86.20
2017-12-31T08:11:02.492Z,86.20
2017-12-31T08:13:30.772Z,86.62
2017-12-31T08:15:59.060Z,86.68
2017-12-31T08:18:27.315Z,86.56
2017-12-31T08:20:55.590Z,86.14
2017-12-31T08:23:23.885Z,86.09
2017-12-31T08:25:52.158Z,86.39
2017-12-31T08:28:20.446Z,86.59
2017-12-31T08:30:48.750Z,86.94
2017-12-31T08:33:17.044Z,87.06
2017-12-31T08:35:46.090Z,87.35
2017-12-31T08:38:14.352Z,87.93
2017-12-31T08:40:42.645Z,88.31
2017-12-31T08:43:10.945Z,88.14
2017-12-31T08:45:39.244Z,89.24
2017-12-31T08:48:07.512Z,88.76
2017-12-31T08:50:35.781Z,88.67
2017-12-31T08:53:04.074Z,89.15
2017-12-31T08:55:32.345Z,89.11
2017-12-31T08:58:00.606Z,89.24
2017-12-31T09:00:28.906Z,89.21
2017-12-31T09:02:57.179Z,89.58
2017-12-31T09:05:25.439Z,89.45
2017-12-31T09:07:53.720Z,89.21
2017-12-31T09:10:21.997Z,89.15
2017-12-31T09:12:50.315Z,89.05
2017-12-31T09:15:19.341Z,89.93
2017-12-31T09:17:47.636Z,89.29
2017-12-31T09:20:15.921Z,89.16
2017-12-31T09:22:44.186Z,89.44
2017-12-31T09:25:12.446Z,89.13
2017-12-31T09:27:40.757Z,89.15
2017-12-31T09:30:09.033Z,89.44
2017-12-31T09:32:37.313Z,89.35
2017-12-31T09:35:05.597Z,89.80
2017-12-31T09:37:33.881Z,89.87
2017-12-31T09:40:02.151Z,90.30
2017-12-31T09:42:30.453Z,90.03
2017-12-31T09:44:58.743Z,90.02
2017-12-31T09:47:27.774Z,90.17
2017-12-31T09:49:56.069Z,90.08
2017-12-31T09:52:24.326Z,90.21
2017-12-31T09:54:52.653Z,90.44
2017-12-31T09:57:20.930Z,90.36
2017-12-31T09:59:49.215Z,90.67
2017-12-31T10:02:17.506Z,91.02
2017-12-31T10:04:46.540Z,91.16
2017-12-31T10:07:14.809Z,90.93
2017-12-31T10:09:43.103Z,90.69
2017-12-31T10:12:11.461Z,90.84
2017-12-31T10:14:39.744Z,90.82
2017-12-31T10:17:08.053Z,90.86
2017-12-31T10:19:36.314Z,90.75
2017-12-31T10:22:04.614Z,90.52
2017-12-31T10:24:33.643Z,91.54
2017-12-31T10:27:02.689Z,90.88
2017-12-31T10:29:30.975Z,90.87
2017-12-31T10:31:59.228Z,90.56
2017-12-31T10:34:27.484Z,90.85
2017-12-31T10:36:55.784Z,91.02
2017-12-31T10:39:24.036Z,90.39
2017-12-31T10:41:53.069Z,90.56
2017-12-31T10:44:21.437Z,90.74
2017-12-31T10:46:50.059Z,90.74
2017-12-31T10:49:18.311Z,90.91
2017-12-31T10:51:46.608Z,90.63
2017-12-31T10:54:14.910Z,90.39
2017-12-31T10:56:43.189Z,90.15
2017-12-31T10:59:12.243Z,90.29
2017-12-31T11:01:40.510Z,90.25
2017-12-31T11:04:08.806Z,90.65
2017-12-31T11:06:37.083Z,90.03
2017-12-31T11:09:05.343Z,89.53
2017-12-31T11:11:33.627Z,89.18
2017-12-31T11:14:01.944Z,89.39
2017-12-31T11:16:30.207Z,88.83
2017-12-31T11:18:58.476Z,89.37
2017-12-31T11:21:26.775Z,89.55
2017-12-31T11:23:55.101Z,89.17
2017-12-31T11:26:23.359Z,89.27
2017-12-31T11:28:51.660Z,88.83
2017-12-31T11:31:19.934Z,88.67
2017-12-31T11:33:48.186Z,88.37
2017-12-31T11:36:17.239Z,88.47
2017-12-31T11:38:45.504Z,88.32
2017-12-31T11:41:13.843Z,87.99
2017-12-31T11:43:42.156Z,87.93
2017-12-31T11:46:10.428Z,87.50
2017-12-31T11:48:38.690Z,87.17
2017-12-31T11:51:06.991Z,87.12
2017-12-31T11:53:35.251Z,86.50
2017-12-31T11:56:03.537Z,86.67
2017-12-31T11:58:31.806Z,85.67
2017-12-31T12:01:00.092Z,85.94
2017-12-31T12:03:28.378Z,85.81
2017-12-31T12:05:56.635Z,86.02
2017-12-31T12:08:24.917Z,85.21
2017-12-31T12:10:53.241Z,85.58
2017-12-31T12:13:21.520Z,85.69
2017-12-31T12:15:50.706Z,85.89
2017-12-31T12:18:18.984Z,85.42
2017-12-31T12:20:47.266Z,85.07
2017-12-31T12:23:15.532Z,84.56
2017-12-31T12:25:43.829Z,84.40
2017-12-31T12:28:12.104Z,84.56
2017-12-31T12:30:40.396Z,83.97
2017-12-31T12:33:08.684Z,84.43
2017-12-31T12:35:37.709Z,84.20
2017-12-31T12:38:06.002Z,83.74
2017-12-31T12:40:34.268Z,83.96
2017-12-31T12:43:02.565Z,84.40
2017-12-31T12:45:30.825Z,84.55
2017-12-31T12:47:59.095Z,84.25
2017-12-31T12:50:27.403Z,84.39
2017-12-31T12:52:55.664Z,84.36
2017-12-31T12:55:23.952Z,84.22
2017-12-31T12:57:52.215Z,84.89
2017-12-31T13:00:20.500Z,84.47
2017-12-31T13:02:48.812Z,84.00
2017-12-31T13:05:17.100Z,83.28
2017-12-31T13:07:45.397Z,82.91
2017-12-31T13:10:14.459Z,83.22
2017-12-31T13:12:42.755Z,82.82
2017-12-31T13:15:11.038Z,82.97
2017-12-31T13:17:39.313Z,83.44
2017-12-31T13:20:07.579Z,83.49
2017-12-31T13:22:35.877Z,83.11
2017-12-31T13:25:04.917Z,82.34
2017-12-31T13:27:33.196Z,81.95
2017-12-31T13:30:01.538Z,82.15
2017-12-31T13:50:32.627Z,82.51
2017-12-31T14:11:09.166Z,81.94
2017-12-31T14:31:41.027Z,81.71
2017-12-31T14:52:16.300Z,80.99
2017-12-31T15:12:52.491Z,80.60
2017-12-31T15:33:28.687Z,80.25
2017-12-31T15:54:00.886Z,80.00
2017-12-31T16:14:38.332Z,80.63
2017-12-31T16:35:14.502Z,79.95
2017-12-31T16:55:47.981Z,79.68
2017-12-31T17:16:21.978Z,79.48
2017-12-31T17:36:58.170Z,80.53
2017-12-31T17:57:33.441Z,84.67
2017-12-31T18:18:08.895Z,83.83
2017-12-31T18:38:41.835Z,82.48
2017-12-31T18:59:16.323Z,81.25
2017-12-31T19:19:52.379Z,81.38
2017-12-31T19:40:26.785Z,79.74
2017-12-31T20:00:59.993Z,77.77
2017-12-31T20:21:35.131Z,76.07
2017-12-31T20:42:11.319Z,77.44
2017-12-31T21:02:51.832Z,78.65
2017-12-31T21:23:34.768Z,81.72
2017-12-31T21:44:11.295Z,84.66
2017-12-31T22:04:49.924Z,85.63
2017-12-31T22:25:28.830Z,82.96
2017-12-31T22:46:00.767Z,82.24
2017-12-31T23:06:33.894Z,80.92
2017-12-31T23:27:09.183Z,77.07
2017-12-31T23:47:45.371Z,73.30
